Time;durP1;ratioP1;P1;durP2;ratioP2;P2;SDS_P1;SDS_P2;PMS_P1;PMS_P2;Temp;Humidity;BMP_temperature;BMP_pressure;BME280_temperature;BME280_humidity;BME280_pressure;Samples;Min_cycle;Max_cycle;Signal;HPM_P1;HPM_P2
2021/01/31 00:01:01;;;;;;;51.23;25.80;;;;;;;-2.10;76.35;97325.27;1764469;81;21155;-69
2021/01/31 00:03:29;;;;;;;50.85;26.48;;;;;;;-2.13;76.46;97346.17;1764232;81;22172;-69
2021/01/31 00:06:01;;;;;;;47.60;23.38;;;;;;;-2.15;76.65;97332.84;1764502;81;21581;-68
2021/01/31 00:08:28;;;;;;;56.40;26.07;;;;;;;-2.20;76.83;97276.60;1764524;81;21162;-69
2021/01/31 00:10:57;;;;;;;46.42;22.95;;;;;;;-2.28;77.17;97246.42;1764191;81;21178;-69
2021/01/31 00:13:26;;;;;;;46.85;23.57;;;;;;;-2.42;77.52;97261.94;1764366;81;21226;-69
2021/01/31 00:15:54;;;;;;;53.90;26.57;;;;;;;-2.50;77.74;97282.61;1735326;81;21234;-70
2021/01/31 00:18:25;;;;;;;54.93;24.95;;;;;;;-2.57;78.04;97300.72;1695364;84;21738;-69
2021/01/31 00:20:56;;;;;;;49.27;25.02;;;;;;;-2.56;78.27;97315.30;1716229;83;21168;-69
2021/01/31 00:23:23;;;;;;;40.52;21.80;;;;;;;-2.55;78.20;97324.73;1715784;83;21801;-69
2021/01/31 00:25:50;;;;;;;42.43;21.35;;;;;;;-2.61;78.21;97330.72;1715721;83;21219;-69
2021/01/31 00:28:21;;;;;;;46.15;22.13;;;;;;;-2.61;78.28;97328.95;1715825;83;21608;-69
2021/01/31 00:30:49;;;;;;;38.33;19.35;;;;;;;-2.66;78.37;97336.99;1715671;83;21172;-69
2021/01/31 00:33:23;;;;;;;36.73;20.02;;;;;;;-2.61;78.25;97346.25;1715500;83;21180;-69
2021/01/31 00:35:54;;;;;;;38.45;20.10;;;;;;;-2.62;78.35;97355.78;1715658;83;21171;-69
2021/01/31 00:38:23;;;;;;;37.03;19.42;;;;;;;-2.62;78.41;97356.22;1715576;83;21309;-69
2021/01/31 00:40:51;;;;;;;35.40;18.17;;;;;;;-2.68;78.48;97362.11;1715905;83;21184;-69
2021/01/31 00:43:18;;;;;;;34.55;19.20;;;;;;;-2.71;78.53;97356.26;1715512;83;21175;-69
2021/01/31 00:45:46;;;;;;;34.18;19.23;;;;;;;-2.72;78.48;97368.84;1715573;83;21203;-69
2021/01/31 00:48:14;;;;;;;40.00;20.80;;;;;;;-2.81;78.57;97365.83;1715608;83;21216;-69
2021/01/31 00:50:41;;;;;;;42.05;22.62;;;;;;;-2.83;78.60;97372.00;1715636;83;21191;-69
2021/01/31 00:53:13;;;;;;;42.27;19.48;;;;;;;-2.86;78.66;97378.17;1715317;83;21212;-70
2021/01/31 00:55:43;;;;;;;46.95;23.38;;;;;;;-2.90;78.64;97390.90;1715651;83;21187;-70
2021/01/31 00:58:11;;;;;;;46.63;23.83;;;;;;;-2.96;78.75;97386.05;1715746;83;21207;-70
2021/01/31 01:00:39;;;;;;;50.23;24.25;;;;;;;-3.03;78.80;97403.66;1715804;83;21202;-70
2021/01/31 01:03:09;;;;;;;45.92;24.63;;;;;;;-3.07;78.79;97396.13;1715198;83;21168;-69
2021/01/31 01:06:02;;;;;;;39.15;21.17;;;;;;;-3.06;78.89;97400.39;1820014;79;23084;-69
2021/01/31 01:08:30;;;;;;;40.30;22.05;;;;;;;-3.13;78.81;97403.29;1728313;83;21119;-70
2021/01/31 01:10:57;;;;;;;42.75;21.27;;;;;;;-3.16;78.71;97407.34;1728077;83;21189;-69
2021/01/31 01:13:25;;;;;;;39.42;20.68;;;;;;;-3.17;78.76;97416.45;1757962;81;21163;-69
2021/01/31 01:15:52;;;;;;;33.63;18.50;;;;;;;-3.21;78.69;97408.48;1726677;83;21220;-69
2021/01/31 01:18:20;;;;;;;35.58;18.98;;;;;;;-3.21;78.53;97425.28;1696178;84;21725;-69
2021/01/31 01:20:49;;;;;;;33.98;16.65;;;;;;;-3.24;78.38;97414.65;1695865;84;21135;-69
2021/01/31 01:23:17;;;;;;;31.73;16.85;;;;;;;-3.28;78.50;97424.77;1695952;84;21214;-69
2021/01/31 01:25:45;;;;;;;35.15;18.27;;;;;;;-3.27;78.45;97429.03;1695924;84;21627;-69
2021/01/31 01:28:14;;;;;;;31.62;15.95;;;;;;;-3.25;78.53;97427.66;1695832;84;21147;-69
2021/01/31 01:30:42;;;;;;;29.92;14.98;;;;;;;-3.25;78.40;97425.89;1695782;84;21167;-69
2021/01/31 01:33:09;;;;;;;25.95;13.78;;;;;;;-3.26;78.22;97435.88;1696008;84;21631;-69
2021/01/31 01:35:36;;;;;;;27.52;14.47;;;;;;;-3.27;78.21;97441.11;1695823;84;21619;-69
2021/01/31 01:38:04;;;;;;;24.15;14.83;;;;;;;-3.28;78.19;97445.92;1695835;84;21623;-69
2021/01/31 01:40:35;;;;;;;23.75;12.85;;;;;;;-3.26;78.10;97453.13;1695934;84;21222;-70
2021/01/31 01:43:04;;;;;;;20.45;11.43;;;;;;;-3.27;78.01;97456.62;1714246;84;21203;-69
2021/01/31 01:45:31;;;;;;;20.68;11.75;;;;;;;-3.29;77.89;97459.28;1726188;83;21206;-69
2021/01/31 01:48:13;;;;;;;20.27;11.93;;;;;;;-3.31;77.90;97471.00;1695868;84;21215;-69
2021/01/31 01:50:51;;;;;;;24.90;13.28;;;;;;;-3.31;77.98;97480.52;1716670;83;21587;-69
2021/01/31 01:53:23;;;;;;;20.48;11.78;;;;;;;-3.26;77.92;97472.08;1700801;84;21174;-69
2021/01/31 01:56:05;;;;;;;19.10;10.35;;;;;;;-3.21;77.97;97487.33;1701316;84;21178;-69
2021/01/31 01:58:32;;;;;;;20.45;10.45;;;;;;;-3.23;77.68;97483.53;1701044;84;21314;-69
2021/01/31 02:00:59;;;;;;;17.42;10.98;;;;;;;-3.22;77.67;97496.84;1701038;84;21340;-69
2021/01/31 02:03:32;;;;;;;18.30;9.38;;;;;;;-3.25;77.77;97500.04;1700930;84;21183;-69
2021/01/31 02:06:11;;;;;;;16.55;9.70;;;;;;;-3.26;77.65;97505.67;1685809;84;21361;-70
2021/01/31 02:08:40;;;;;;;16.17;9.13;;;;;;;-3.31;77.90;97513.66;1683542;85;21203;-69
2021/01/31 02:11:11;;;;;;;16.10;9.78;;;;;;;-3.37;78.22;97512.66;1683542;85;21334;-70
2021/01/31 02:13:39;;;;;;;18.07;9.63;;;;;;;-3.39;78.26;97521.41;1746844;82;22120;-69
2021/01/31 02:16:13;;;;;;;13.83;8.53;;;;;;;-3.46;78.48;97522.99;1746320;82;21209;-70
2021/01/31 02:18:49;;;;;;;14.23;8.63;;;;;;;-3.47;78.53;97521.31;1746289;82;21167;-69
2021/01/31 02:21:37;;;;;;;16.00;9.05;;;;;;;-3.49;78.55;97526.17;1746392;82;21155;-69
2021/01/31 02:24:53;;;;;;;14.03;7.78;;;;;;;-3.50;78.75;97531.81;1746300;82;21199;-69
2021/01/31 02:27:49;;;;;;;11.45;7.55;;;;;;;-3.56;78.79;97537.75;1746061;82;21152;-69
2021/01/31 02:31:00;;;;;;;13.72;7.92;;;;;;;-3.57;78.86;97551.10;1746105;82;21164;-69
2021/01/31 02:33:56;;;;;;;13.08;7.72;;;;;;;-3.60;79.03;97551.73;1746135;82;21151;-68
2021/01/31 02:36:32;;;;;;;14.43;7.75;;;;;;;-3.62;79.10;97553.07;1730239;82;21174;-69
2021/01/31 02:39:25;;;;;;;15.28;7.87;;;;;;;-3.57;78.97;97574.36;1725343;82;21195;-68
2021/01/31 02:42:19;;;;;;;12.05;6.92;;;;;;;-3.54;78.84;97584.56;1746150;82;21177;-69
2021/01/31 02:45:11;;;;;;;12.50;6.85;;;;;;;-3.56;78.85;97579.91;1743267;82;21206;-68
2021/01/31 02:47:49;;;;;;;10.82;6.87;;;;;;;-3.54;78.74;97585.86;1746056;82;21155;-69
2021/01/31 02:50:30;;;;;;;10.90;7.15;;;;;;;-3.56;78.78;97599.29;1746340;82;21651;-69
2021/01/31 02:53:18;;;;;;;11.18;7.33;;;;;;;-3.57;78.76;97601.48;1743795;82;21230;-68
2021/01/31 02:56:07;;;;;;;11.68;6.97;;;;;;;-3.56;78.67;97610.91;1725639;82;21167;-68
2021/01/31 02:58:47;;;;;;;11.30;6.33;;;;;;;-3.52;78.69;97626.65;1746136;82;21139;-68
2021/01/31 03:01:23;;;;;;;11.03;6.70;;;;;;;-3.53;78.71;97643.09;1746222;82;21571;-69
2021/01/31 03:04:00;;;;;;;10.53;6.53;;;;;;;-3.49;78.74;97652.37;1746093;82;21135;-69
2021/01/31 03:06:30;;;;;;;11.45;6.83;;;;;;;-3.48;78.92;97658.36;1737424;81;21676;-69
2021/01/31 03:09:15;;;;;;;11.35;7.00;;;;;;;-3.41;78.83;97673.15;1759605;81;21551;-69
2021/01/31 03:11:55;;;;;;;9.40;6.35;;;;;;;-3.35;78.87;97684.47;1759230;81;21285;-70
2021/01/31 03:14:42;;;;;;;11.63;6.53;;;;;;;-3.32;78.86;97693.39;1759452;81;21313;-70
2021/01/31 03:17:20;;;;;;;10.08;6.55;;;;;;;-3.29;78.82;97702.27;1759556;81;21143;-68
2021/01/31 03:19:52;;;;;;;10.25;6.37;;;;;;;-3.27;78.90;97710.81;1759381;81;21183;-69
2021/01/31 03:22:28;;;;;;;9.55;6.05;;;;;;;-3.25;78.89;97731.41;1758275;81;21524;-69
2021/01/31 03:24:58;;;;;;;11.10;7.00;;;;;;;-3.15;78.76;97734.77;1759208;81;21183;-69
2021/01/31 03:27:30;;;;;;;11.43;6.55;;;;;;;-3.13;78.74;97739.90;1759402;81;21139;-69
2021/01/31 03:29:57;;;;;;;12.40;7.00;;;;;;;-3.09;78.52;97738.02;1759428;81;21127;-69
2021/01/31 03:32:32;;;;;;;10.88;6.30;;;;;;;-3.10;78.50;97737.63;1759341;81;21174;-69
2021/01/31 03:35:11;;;;;;;9.00;6.15;;;;;;;-3.15;78.54;97733.48;1733641;81;21277;-69
2021/01/31 03:37:50;;;;;;;11.40;6.47;;;;;;;-3.14;78.41;97745.51;1759480;81;21162;-69
2021/01/31 03:40:17;;;;;;;10.48;6.58;;;;;;;-3.09;78.44;97747.06;1759601;81;21186;-69
2021/01/31 03:42:45;;;;;;;9.85;6.40;;;;;;;-3.11;78.35;97755.34;1732423;81;21186;-69
2021/01/31 03:45:14;;;;;;;8.88;5.53;;;;;;;-3.09;78.25;97757.41;1759396;81;21211;-68
2021/01/31 03:47:52;;;;;;;8.43;5.80;;;;;;;-3.13;78.15;97758.00;1759253;81;21203;-69
2021/01/31 03:50:20;;;;;;;9.58;6.00;;;;;;;-3.14;78.03;97757.14;1759367;81;21159;-68
2021/01/31 03:52:47;;;;;;;9.83;6.12;;;;;;;-3.14;77.86;97767.95;1731972;81;21194;-68
2021/01/31 03:55:14;;;;;;;10.85;6.45;;;;;;;-3.19;77.96;97781.08;1759571;81;21163;-68
2021/01/31 03:57:53;;;;;;;10.00;5.97;;;;;;;-3.18;77.84;97781.47;1759218;81;21151;-68
2021/01/31 04:00:25;;;;;;;10.63;6.17;;;;;;;-3.28;77.99;97785.39;1759551;81;21175;-69
2021/01/31 04:03:10;;;;;;;9.98;5.97;;;;;;;-3.25;77.88;97793.45;1759539;81;21186;-69
2021/01/31 04:05:40;;;;;;;10.38;6.30;;;;;;;-3.29;77.81;97801.80;1756669;81;21316;-69
2021/01/31 04:08:10;;;;;;;9.45;5.80;;;;;;;-3.27;77.83;97811.63;1754419;82;21151;-69
2021/01/31 04:10:42;;;;;;;9.38;6.53;;;;;;;-3.26;77.60;97810.73;1701125;82;21194;-69
2021/01/31 04:13:11;;;;;;;9.33;6.20;;;;;;;-3.22;77.59;97817.43;1754022;81;21183;-68
2021/01/31 04:15:58;;;;;;;8.68;5.83;;;;;;;-3.22;77.51;97823.89;1754216;82;21661;-68
2021/01/31 04:18:25;;;;;;;8.55;5.95;;;;;;;-3.19;77.42;97830.20;1754349;82;21310;-69
2021/01/31 04:20:53;;;;;;;8.83;6.08;;;;;;;-3.20;77.48;97844.50;1754188;82;21120;-69
2021/01/31 04:23:20;;;;;;;11.40;6.60;;;;;;;-3.26;77.66;97839.17;1754123;82;21175;-69
2021/01/31 04:25:49;;;;;;;8.60;5.62;;;;;;;-3.22;77.66;97844.58;1753932;82;21175;-69
2021/01/31 04:28:21;;;;;;;10.30;6.72;;;;;;;-3.24;77.67;97847.67;1754022;82;21155;-69
2021/01/31 04:30:52;;;;;;;9.70;6.53;;;;;;;-3.25;77.62;97852.92;1754257;82;21147;-69
2021/01/31 04:33:19;;;;;;;10.78;6.70;;;;;;;-3.21;77.58;97854.45;1754012;82;21168;-69
2021/01/31 04:35:47;;;;;;;9.93;6.25;;;;;;;-3.19;77.53;97857.36;1754144;82;21615;-69
2021/01/31 04:38:14;;;;;;;9.65;6.53;;;;;;;-3.19;77.57;97861.23;1754176;82;21567;-70
2021/01/31 04:40:41;;;;;;;10.43;5.90;;;;;;;-3.16;77.54;97865.42;1754233;82;21187;-70
2021/01/31 04:43:13;;;;;;;11.05;6.22;;;;;;;-3.14;77.37;97868.80;1754145;82;21202;-70
2021/01/31 04:45:42;;;;;;;10.43;6.58;;;;;;;-3.11;77.31;97879.45;1753968;82;21199;-70
2021/01/31 04:48:41;;;;;;;9.93;6.33;;;;;;;-3.15;77.42;97898.97;1754015;82;21182;-71
2021/01/31 04:51:33;;;;;;;12.80;7.67;;;;;;;-3.05;77.39;97894.70;1753909;82;21341;-70
2021/01/31 04:54:15;;;;;;;10.75;7.03;;;;;;;-3.03;77.49;97907.95;1753963;82;21151;-70
2021/01/31 04:57:00;;;;;;;13.03;7.00;;;;;;;-3.02;77.40;97907.48;1750653;82;21195;-69
2021/01/31 04:59:40;;;;;;;9.83;7.25;;;;;;;-2.97;77.40;97906.83;1753896;82;21642;-68
2021/01/31 05:02:29;;;;;;;14.13;7.22;;;;;;;-2.92;77.34;97921.68;1753120;82;21360;-68
2021/01/31 05:04:58;;;;;;;15.78;8.70;;;;;;;-2.95;77.23;97929.59;1753093;82;21300;-69
2021/01/31 05:07:52;;;;;;;11.03;6.83;;;;;;;-2.89;77.12;97933.20;1745927;82;21322;-69
2021/01/31 05:10:26;;;;;;;11.38;7.25;;;;;;;-2.90;76.99;97924.19;1780255;79;23418;-69
2021/01/31 05:13:25;;;;;;;14.83;8.25;;;;;;;-2.95;76.80;97938.64;1753182;81;21583;-69
2021/01/31 05:16:05;;;;;;;12.25;7.45;;;;;;;-2.98;77.00;97950.41;1723851;81;21174;-70
2021/01/31 05:18:35;;;;;;;16.93;8.85;;;;;;;-2.94;76.98;97950.67;1723083;82;21190;-69
2021/01/31 05:21:08;;;;;;;15.72;9.03;;;;;;;-2.86;76.86;97974.91;1723243;83;21640;-69
2021/01/31 05:23:42;;;;;;;14.95;9.58;;;;;;;-2.84;76.78;97976.95;1723390;82;21309;-69
2021/01/31 05:26:10;;;;;;;;;;;;;;;-2.76;76.58;97982.65;1725745;83;21171;-69
2021/01/31 05:28:42;;;;;;;19.25;9.93;;;;;;;-2.72;76.61;97993.71;1723114;82;20171;-69
2021/01/31 05:31:12;;;;;;;14.68;9.03;;;;;;;-2.71;76.42;97993.63;1695342;83;21306;-69
2021/01/31 05:33:54;;;;;;;15.08;8.03;;;;;;;-2.68;76.45;98005.13;1723085;83;21112;-69
2021/01/31 05:36:24;;;;;;;15.55;9.00;;;;;;;-2.66;76.21;98001.17;1723211;83;21199;-69
2021/01/31 05:38:52;;;;;;;18.15;8.80;;;;;;;-2.64;76.18;98009.72;1723043;83;21186;-69
2021/01/31 05:41:40;;;;;;;16.17;9.20;;;;;;;-2.67;76.10;98020.22;1723238;83;21635;-70
2021/01/31 05:44:26;;;;;;;17.50;9.48;;;;;;;-2.65;76.17;98020.98;1723281;83;21175;-70
2021/01/31 05:46:58;;;;;;;18.37;9.68;;;;;;;-2.67;76.06;98030.58;1723200;82;21288;-70
2021/01/31 05:49:41;;;;;;;19.85;9.38;;;;;;;-2.63;76.01;98030.81;1723689;83;21163;-69
2021/01/31 05:52:26;;;;;;;20.52;9.83;;;;;;;-2.65;76.11;98035.20;1723344;83;21198;-69
2021/01/31 05:54:55;;;;;;;19.20;10.20;;;;;;;-2.56;75.92;98042.55;1723164;83;21587;-69
2021/01/31 05:57:33;;;;;;;20.95;10.23;;;;;;;-2.54;75.85;98040.75;1694974;83;21171;-70
2021/01/31 06:00:21;;;;;;;15.13;8.45;;;;;;;-2.53;75.66;98045.03;1723669;83;21322;-70
2021/01/31 06:03:02;;;;;;;18.77;9.98;;;;;;;-2.50;75.64;98046.64;1723445;83;21734;-70
2021/01/31 06:05:30;;;;;;;16.00;9.58;;;;;;;-2.52;75.78;98055.78;1723194;83;21171;-70
2021/01/31 06:08:26;;;;;;;16.02;8.78;;;;;;;-2.44;75.62;98059.31;1713540;83;21155;-70
2021/01/31 06:11:04;;;;;;;16.25;8.93;;;;;;;-2.44;75.58;98067.52;1650202;87;21328;-69
2021/01/31 06:13:34;;;;;;;16.32;9.08;;;;;;;-2.36;75.34;98068.03;1672498;85;21176;-69
2021/01/31 06:16:06;;;;;;;17.17;9.43;;;;;;;-2.36;75.33;98074.51;1684279;85;21221;-69
2021/01/31 06:18:47;;;;;;;16.52;9.15;;;;;;;-2.43;75.12;98058.84;1649586;87;21780;-69
2021/01/31 06:21:17;;;;;;;17.23;9.13;;;;;;;-2.26;75.01;98088.72;1676693;85;21177;-69
2021/01/31 06:23:48;;;;;;;17.52;9.20;;;;;;;-2.22;74.92;98085.08;1676886;85;21688;-69
2021/01/31 06:26:31;;;;;;;15.60;9.18;;;;;;;-2.18;74.84;98096.97;1676807;85;21230;-69
2021/01/31 06:29:09;;;;;;;16.32;10.03;;;;;;;-2.13;74.70;98101.95;1646729;85;21210;-69
2021/01/31 06:32:04;;;;;;;16.90;9.98;;;;;;;-2.12;74.56;98106.67;1671861;86;21183;-69
2021/01/31 06:34:32;;;;;;;20.62;10.15;;;;;;;-2.12;74.40;98109.26;1714857;83;21266;-69
2021/01/31 06:37:26;;;;;;;16.73;9.15;;;;;;;-2.12;74.29;98114.44;1703698;83;21167;-69
2021/01/31 06:40:34;;;;;;;17.37;9.45;;;;;;;-2.12;74.42;98111.85;1691592;83;21191;-69
2021/01/31 06:43:14;;;;;;;21.48;10.18;;;;;;;-2.16;74.51;98111.17;1690036;85;21182;-68
2021/01/31 06:46:09;;;;;;;19.17;8.80;;;;;;;-2.15;74.44;98114.98;1691619;83;21191;-68
2021/01/31 06:49:04;;;;;;;19.00;9.95;;;;;;;-2.14;74.32;98115.81;1709398;83;21175;-68
2021/01/31 06:51:49;;;;;;;20.50;9.93;;;;;;;-2.18;74.58;98108.63;1711702;83;21618;-67
2021/01/31 06:54:27;;;;;;;21.68;10.25;;;;;;;-2.23;74.47;98109.29;1698332;83;21558;-67
2021/01/31 06:57:18;;;;;;;19.85;10.38;;;;;;;-2.24;74.68;98123.14;1710214;83;21163;-68
2021/01/31 07:00:07;;;;;;;22.30;10.82;;;;;;;-2.28;74.95;98128.08;1718882;83;21179;-67
2021/01/31 07:03:07;;;;;;;21.62;10.95;;;;;;;-2.28;74.94;98135.84;1718215;83;21131;-67
2021/01/31 07:05:59;;;;;;;22.60;10.78;;;;;;;-2.26;75.13;98152.17;1719168;83;21127;-67
2021/01/31 07:09:09;;;;;;;21.33;10.78;;;;;;;-2.22;75.26;98151.59;1718146;83;22308;-69
2021/01/31 07:11:54;;;;;;;23.50;12.13;;;;;;;-2.23;75.26;98154.61;1717509;83;21131;-68
2021/01/31 07:14:42;;;;;;;28.77;14.00;;;;;;;-2.17;75.35;98159.52;1710504;83;21713;-69
2021/01/31 07:17:36;;;;;;;21.02;11.15;;;;;;;-2.09;75.33;98160.95;1713775;83;21182;-68
2021/01/31 07:20:21;;;;;;;21.70;11.10;;;;;;;-2.00;75.03;98174.78;1720330;83;21179;-69
2021/01/31 07:23:06;;;;;;;25.00;12.50;;;;;;;-2.00;75.03;98174.78;1704623;83;21571;-69
2021/01/31 07:25:38;;;;;;;24.47;12.53;;;;;;;-2.02;74.98;98168.81;1692007;83;21175;-68
2021/01/31 07:28:28;;;;;;;23.83;11.78;;;;;;;-1.96;75.09;98184.56;1706737;83;21167;-68
2021/01/31 07:31:04;;;;;;;22.62;11.57;;;;;;;-1.86;74.87;98180.65;1710431;83;21154;-68
2021/01/31 07:33:56;;;;;;;26.82;12.55;;;;;;;-1.83;74.60;98183.95;1717334;83;21179;-69
2021/01/31 07:36:31;;;;;;;25.80;12.80;;;;;;;-1.78;74.67;98190.66;1694456;83;21151;-68
2021/01/31 07:39:19;;;;;;;21.10;10.80;;;;;;;-1.74;74.48;98206.02;1712949;83;21159;-68
2021/01/31 07:41:55;;;;;;;22.42;12.13;;;;;;;-1.70;74.29;98205.41;1718915;83;21143;-68
2021/01/31 07:44:29;;;;;;;25.12;12.47;;;;;;;-1.70;74.17;98211.45;1717980;83;21250;-68
2021/01/31 07:47:00;;;;;;;24.32;13.62;;;;;;;-1.61;73.98;98215.81;1707900;83;21179;-68
2021/01/31 07:49:56;;;;;;;26.97;12.68;;;;;;;-1.59;74.01;98221.78;1717244;83;21210;-68
2021/01/31 07:52:27;;;;;;;22.80;11.70;;;;;;;-1.50;73.82;98239.08;1719521;83;21163;-68
2021/01/31 07:55:34;;;;;;;24.52;12.78;;;;;;;-1.52;73.48;98235.70;1715571;83;21142;-68
2021/01/31 07:58:27;;;;;;;18.37;10.10;;;;;;;-1.47;73.21;98242.41;1701785;83;21171;-68
2021/01/31 08:00:54;;;;;;;23.20;12.03;;;;;;;-1.45;73.48;98245.33;1707359;83;21598;-68
2021/01/31 08:03:30;;;;;;;23.70;11.12;;;;;;;-1.43;73.21;98249.14;1714079;83;21207;-67
2021/01/31 08:06:02;;;;;;;23.15;11.03;;;;;;;-1.40;72.81;98252.44;1718189;83;21203;-68
2021/01/31 08:08:51;;;;;;;17.37;9.23;;;;;;;-1.42;72.14;98257.31;1705518;83;21214;-68
2021/01/31 08:11:27;;;;;;;15.08;8.50;;;;;;;-1.44;71.75;98255.27;1719375;83;21632;-69
2021/01/31 08:13:54;;;;;;;20.52;9.78;;;;;;;-1.45;70.78;98249.69;1719492;83;21589;-69
2021/01/31 08:16:47;;;;;;;14.83;8.50;;;;;;;-1.47;70.60;98260.56;1717676;83;21171;-69
2021/01/31 08:19:29;;;;;;;38.58;18.55;;;;;;;-1.49;70.21;98255.45;1704626;83;21289;-68
2021/01/31 08:22:09;;;;;;;19.77;10.25;;;;;;;-1.44;70.28;98263.04;1703193;83;21567;-68
2021/01/31 08:25:11;;;;;;;15.32;8.40;;;;;;;-1.47;70.11;98259.27;1691760;83;21155;-69
2021/01/31 08:27:45;;;;;;;18.62;8.40;;;;;;;-1.40;70.16;98265.88;1645479;87;21193;-68
2021/01/31 08:30:31;;;;;;;13.80;8.33;;;;;;;-1.45;69.34;98280.33;1685530;84;21346;-68
2021/01/31 08:33:04;;;;;;;12.37;6.53;;;;;;;-1.40;69.86;98284.86;1685201;84;21151;-68
2021/01/31 08:35:45;;;;;;;14.33;7.60;;;;;;;-1.27;69.03;98285.61;1717282;83;21605;-68
2021/01/31 08:38:34;;;;;;;17.87;9.00;;;;;;;-1.20;68.86;98285.25;1719741;83;21524;-68
2021/01/31 08:41:08;;;;;;;14.18;7.37;;;;;;;-1.04;68.84;98297.52;1718855;83;21115;-68
2021/01/31 08:43:49;;;;;;;16.45;8.45;;;;;;;-0.91;68.41;98293.45;1718452;83;21309;-69
2021/01/31 08:46:29;;;;;;;14.03;7.85;;;;;;;-0.80;68.42;98304.62;1718466;83;21326;-69
2021/01/31 08:49:13;;;;;;;15.35;7.65;;;;;;;-0.87;67.06;98311.00;1719662;83;21726;-68
2021/01/31 08:51:44;;;;;;;18.48;8.53;;;;;;;-0.84;66.61;98314.30;1720091;83;21191;-68
2021/01/31 08:54:17;;;;;;;15.98;8.75;;;;;;;-0.93;66.88;98317.33;1719603;83;21143;-69
2021/01/31 08:56:52;;;;;;;9.80;6.05;;;;;;;-0.88;66.98;98325.75;1719787;83;21138;-68
2021/01/31 08:59:24;;;;;;;13.13;7.08;;;;;;;-0.89;65.29;98325.35;1719792;83;21638;-69
2021/01/31 09:02:22;;;;;;;14.23;7.40;;;;;;;-0.91;65.03;98318.11;1720204;83;21179;-68
2021/01/31 09:05:13;;;;;;;23.90;13.10;;;;;;;-0.91;65.68;98319.41;1719316;83;21655;-68
2021/01/31 09:07:44;;;;;;;22.15;13.18;;;;;;;-0.80;65.56;98323.26;1719786;83;21178;-68
2021/01/31 09:10:37;;;;;;;15.03;8.58;;;;;;;-0.64;65.58;98322.89;1713079;82;21210;-69
2021/01/31 09:13:25;;;;;;;18.40;8.10;;;;;;;-0.50;65.24;98323.53;1708942;82;21367;-69
2021/01/31 09:15:53;;;;;;;18.42;9.98;;;;;;;-0.38;65.10;98323.42;1708533;84;21151;-69
2021/01/31 09:18:23;;;;;;;14.93;7.92;;;;;;;-0.25;65.98;98329.69;1709536;83;21282;-69
2021/01/31 09:20:51;;;;;;;14.38;6.90;;;;;;;-0.11;65.37;98336.81;1709979;84;21179;-69
2021/01/31 09:23:32;;;;;;;15.75;7.85;;;;;;;0.00;64.22;98345.39;1709599;83;21187;-69
2021/01/31 09:26:01;;;;;;;15.38;8.15;;;;;;;0.09;64.22;98359.66;1709213;84;21212;-69
2021/01/31 09:28:28;;;;;;;12.47;6.62;;;;;;;0.27;63.60;98355.30;1709615;84;21144;-69
2021/01/31 09:31:02;;;;;;;11.38;6.78;;;;;;;0.34;63.44;98364.95;1709559;84;21163;-69
2021/01/31 09:33:37;;;;;;;13.90;6.97;;;;;;;0.51;62.84;98364.08;1709662;83;21179;-70
2021/01/31 09:36:25;;;;;;;14.45;7.90;;;;;;;0.55;62.63;98364.30;1709478;84;21289;-69
2021/01/31 09:38:53;;;;;;;12.68;6.40;;;;;;;0.61;62.56;98362.69;1709670;84;21159;-69
2021/01/31 09:41:22;;;;;;;15.05;7.37;;;;;;;0.56;62.34;98364.69;1709488;83;21301;-69
2021/01/31 09:43:54;;;;;;;14.65;7.47;;;;;;;0.64;62.55;98375.08;1709617;83;21195;-69
2021/01/31 09:46:24;;;;;;;12.37;6.83;;;;;;;0.74;62.49;98378.50;1707484;84;21302;-69
2021/01/31 09:49:11;;;;;;;13.58;7.25;;;;;;;0.80;61.82;98375.58;1709700;83;21739;-69
2021/01/31 09:51:38;;;;;;;11.60;6.20;;;;;;;0.82;61.53;98372.45;1709639;84;21156;-70
2021/01/31 09:54:20;;;;;;;10.72;6.50;;;;;;;0.70;59.99;98377.81;1709663;83;21196;-69
2021/01/31 09:56:54;;;;;;;10.82;6.12;;;;;;;0.53;60.28;98377.86;1710011;83;21616;-70
2021/01/31 09:59:33;;;;;;;12.10;7.03;;;;;;;0.26;60.13;98378.34;1709810;83;21298;-70
2021/01/31 10:02:21;;;;;;;14.43;6.72;;;;;;;0.11;61.30;98378.64;1709450;84;21317;-70
2021/01/31 10:04:58;;;;;;;12.18;6.00;;;;;;;0.21;62.65;98387.66;1707946;84;21488;-69
2021/01/31 10:07:34;;;;;;;10.25;5.92;;;;;;;0.31;61.75;98391.95;1681373;85;21211;-69
2021/01/31 10:10:39;;;;;;;10.20;5.70;;;;;;;0.31;60.31;98383.69;1700135;83;21356;-68
2021/01/31 10:13:33;;;;;;;10.43;5.17;;;;;;;0.25;60.13;98397.45;1709733;82;21195;-69
2021/01/31 10:16:03;;;;;;;10.40;5.65;;;;;;;0.17;59.71;98391.34;1710077;84;21164;-68
2021/01/31 10:18:38;;;;;;;10.90;5.50;;;;;;;0.11;60.20;98396.37;1709940;84;21164;-69
2021/01/31 10:21:31;;;;;;;7.78;4.35;;;;;;;0.09;59.47;98400.82;1709755;84;21183;-69
2021/01/31 10:24:05;;;;;;;9.05;4.90;;;;;;;0.09;58.73;98406.02;1709916;84;21326;-70
2021/01/31 10:26:32;;;;;;;8.18;4.83;;;;;;;0.00;59.52;98401.28;1708121;84;21595;-69
2021/01/31 10:29:03;;;;;;;10.60;4.35;;;;;;;0.07;59.86;98407.84;1709761;84;21615;-70
2021/01/31 10:31:40;;;;;;;7.80;4.50;;;;;;;0.12;58.32;98414.95;1709306;84;21156;-69
2021/01/31 10:34:12;;;;;;;7.80;4.30;;;;;;;-0.01;58.01;98422.98;1711613;83;21147;-70
2021/01/31 10:36:42;;;;;;;8.58;4.25;;;;;;;0.02;58.82;98435.81;1707709;84;21321;-70
2021/01/31 10:39:17;;;;;;;9.50;4.90;;;;;;;0.11;58.60;98422.36;1666689;84;21355;-70
2021/01/31 10:41:46;;;;;;;5.55;4.00;;;;;;;0.22;58.66;98431.39;1706727;84;21161;-69
2021/01/31 10:44:24;;;;;;;9.65;5.95;;;;;;;0.29;58.70;98434.09;1709987;84;21204;-70
2021/01/31 10:46:52;;;;;;;8.10;4.33;;;;;;;0.35;58.26;98436.86;1709333;84;21187;-70
2021/01/31 10:49:20;;;;;;;8.85;4.45;;;;;;;0.32;57.80;98437.86;1710463;84;21362;-70
2021/01/31 10:51:48;;;;;;;8.58;4.80;;;;;;;0.24;58.06;98437.38;1710047;84;21163;-70
2021/01/31 10:54:17;;;;;;;7.87;4.00;;;;;;;0.25;58.21;98449.46;1710109;83;21612;-69
2021/01/31 10:56:46;;;;;;;7.92;4.50;;;;;;;0.22;57.77;98456.09;1710346;84;21612;-68
2021/01/31 10:59:13;;;;;;;9.10;4.92;;;;;;;0.16;58.59;98452.88;1709707;84;21329;-69
2021/01/31 11:01:46;;;;;;;7.50;4.12;;;;;;;0.37;58.90;98461.02;1707455;83;21279;-68
2021/01/31 11:04:16;;;;;;;9.47;4.90;;;;;;;0.41;57.98;98456.90;1710151;84;21564;-69
2021/01/31 11:06:47;;;;;;;8.40;4.83;;;;;;;0.41;57.61;98455.59;1709861;84;21167;-69
2021/01/31 11:09:16;;;;;;;10.43;4.62;;;;;;;0.38;57.41;98467.91;1709652;83;21295;-70
2021/01/31 11:11:44;;;;;;;8.23;5.08;;;;;;;0.43;57.50;98457.64;1720625;83;21222;-69
2021/01/31 11:14:11;;;;;;;8.43;4.72;;;;;;;0.42;57.72;98462.48;1723473;82;21608;-69
2021/01/31 11:16:40;;;;;;;9.13;4.85;;;;;;;0.52;57.73;98471.13;1723470;83;21599;-69
2021/01/31 11:19:07;;;;;;;11.90;6.20;;;;;;;0.59;58.26;98472.48;1723435;83;22171;-68
2021/01/31 11:21:34;;;;;;;8.80;4.47;;;;;;;0.75;58.29;98473.88;1723273;83;21167;-69
2021/01/31 11:24:02;;;;;;;8.80;5.00;;;;;;;0.91;57.78;98485.63;1723250;83;21187;-70
2021/01/31 11:26:30;;;;;;;8.88;5.67;;;;;;;1.02;57.42;98482.50;1710420;83;21276;-69
2021/01/31 11:31:25;;;;;;;9.55;5.67;;;;;;;0.96;57.06;98487.58;1823262;77;22870;-69
2021/01/31 11:33:55;;;;;;;6.30;4.10;;;;;;;0.80;57.24;98487.50;1760086;81;21142;-69
2021/01/31 11:36:23;;;;;;;10.65;4.95;;;;;;;0.76;56.86;98486.80;1761844;81;21182;-69
2021/01/31 11:38:51;;;;;;;8.70;5.75;;;;;;;0.82;57.31;98489.58;1740224;81;21219;-69
2021/01/31 11:41:18;;;;;;;12.18;4.87;;;;;;;0.88;57.49;98491.01;1746749;81;21244;-69
2021/01/31 11:43:45;;;;;;;8.65;4.80;;;;;;;0.98;56.99;98488.31;1745899;81;21186;-69
2021/01/31 11:46:13;;;;;;;9.63;5.25;;;;;;;1.01;56.81;98493.38;1741824;81;21139;-69
2021/01/31 11:48:40;;;;;;;10.20;4.83;;;;;;;1.11;56.55;98491.13;1754166;81;21200;-70
2021/01/31 11:51:07;;;;;;;9.45;5.15;;;;;;;1.13;56.78;98497.94;1746135;81;21671;-69
2021/01/31 11:53:36;;;;;;;9.30;4.92;;;;;;;1.33;56.31;98494.77;1763765;81;21618;-69
2021/01/31 11:56:04;;;;;;;12.15;5.97;;;;;;;1.40;56.40;98502.62;1755854;81;21142;-69
2021/01/31 11:58:32;;;;;;;17.57;9.03;;;;;;;1.49;56.53;98500.47;1739292;81;21362;-68
2021/01/31 12:01:00;;;;;;;9.85;5.20;;;;;;;1.56;55.83;98496.60;1739916;81;21178;-70
2021/01/31 12:03:27;;;;;;;11.60;4.92;;;;;;;1.60;55.35;98492.93;1744413;81;21723;-69
2021/01/31 12:05:54;;;;;;;13.03;4.70;;;;;;;1.70;55.14;98504.98;1772964;80;21161;-69
2021/01/31 12:08:22;;;;;;;9.08;4.50;;;;;;;1.69;54.97;98505.45;1748243;81;21213;-69
2021/01/31 12:10:50;;;;;;;8.88;4.95;;;;;;;1.75;54.81;98499.92;1772683;80;21174;-69